Time;durP1;ratioP1;P1;durP2;ratioP2;P2;SDS_P1;SDS_P2;PMS_P1;PMS_P2;Temp;Humidity;BMP_temperature;BMP_pressure;BME280_temperature;BME280_humidity;BME280_pressure;Samples;Min_cycle;Max_cycle;Signal;HPM_P1;HPM_P2
2021/06/07 00:00:24;;;;;;;5.13;4.57;;;16.20;79.20;;;15.86;64.80;95255.97;4908156;29;20677;-84
2021/06/07 00:05:16;;;;;;;4.68;4.28;;;16.20;79.30;;;15.78;64.49;95262.31;5151114;27;20404;-85
2021/06/07 00:07:42;;;;;;;4.43;4.03;;;16.20;79.50;;;15.74;64.53;95255.81;5112025;27;20204;-85
2021/06/07 00:10:12;;;;;;;4.60;4.20;;;16.10;79.50;;;15.72;64.52;95263.19;5057692;28;20316;-85
2021/06/07 00:12:39;;;;;;;5.43;4.93;;;16.10;79.60;;;15.69;64.46;95264.41;5040484;28;20244;-85
2021/06/07 00:15:11;;;;;;;4.72;4.32;;;16.10;79.60;;;15.67;64.53;95263.81;5077803;28;20236;-85
2021/06/07 00:17:39;;;;;;;5.15;4.32;;;16.10;79.80;;;15.64;64.41;95266.09;5027489;28;20216;-84
2021/06/07 00:20:16;;;;;;;7.28;4.80;;;16.00;79.50;;;15.59;64.88;95258.78;4966727;28;20258;-85
2021/06/07 00:22:56;;;;;;;5.13;4.60;;;16.00;79.90;;;15.60;65.00;95260.41;5130320;27;20573;-85
2021/06/07 00:25:23;;;;;;;5.50;5.00;;;16.00;80.00;;;15.57;64.92;95257.41;5097026;28;20271;-85
2021/06/07 00:27:50;;;;;;;5.07;4.60;;;15.90;80.10;;;15.58;65.23;95266.94;5070774;28;20379;-85
2021/06/07 00:30:17;;;;;;;5.75;5.22;;;15.90;80.10;;;15.57;65.29;95263.47;5054517;28;20667;-86
2021/06/07 00:32:44;;;;;;;4.80;4.40;;;15.90;80.10;;;15.57;65.47;95265.31;5002130;28;20214;-86
2021/06/07 00:35:12;;;;;;;6.18;5.07;;;15.90;80.00;;;15.52;65.03;95260.69;4926357;28;20201;-86
2021/06/07 00:37:41;;;;;;;4.88;4.47;;;15.90;80.10;;;15.48;64.57;95256.84;4893689;28;20221;-85
2021/06/07 00:42:41;;;;;;;5.00;4.60;;;15.90;80.10;;;15.51;64.91;95264.34;5150736;27;20828;-86
2021/06/07 00:45:21;;;;;;;5.22;4.50;;;15.80;80.10;;;15.47;65.04;95263.94;5084930;28;20202;-85
2021/06/07 00:47:50;;;;;;;6.45;4.90;;;15.80;80.40;;;15.47;64.87;95258.66;5032687;28;20215;-85
2021/06/07 00:50:46;;;;;;;5.20;4.78;;;15.80;80.10;;;15.43;64.96;95254.84;5030627;28;20211;-85
2021/06/07 00:53:17;;;;;;;4.65;4.25;;;15.80;80.60;;;15.42;64.95;95255.84;4987564;28;20702;-85
2021/06/07 00:56:00;;;;;;;5.15;4.65;;;15.80;80.10;;;15.41;65.02;95258.72;4950526;28;20276;-85
2021/06/07 00:58:45;;;;;;;4.82;4.43;;;15.80;80.80;;;15.40;64.88;95249.97;4834102;29;20238;-84
2021/06/07 01:01:23;;;;;;;5.00;4.60;;;15.70;81.40;;;15.39;65.22;95261.56;5149732;27;20836;-84
2021/06/07 01:03:53;;;;;;;4.35;3.95;;;15.70;80.30;;;15.35;65.08;95255.88;5089172;28;20217;-85
2021/06/07 01:06:20;;;;;;;4.10;3.80;;;15.70;80.20;;;15.34;65.11;95264.88;5056042;28;20668;-86
2021/06/07 01:08:48;;;;;;;4.10;3.70;;;15.70;80.00;;;15.29;64.86;95254.09;5051337;28;20713;-85
2021/06/07 01:11:16;;;;;;;4.13;3.83;;;15.70;80.10;;;15.29;64.62;95250.66;5007004;28;20246;-84
2021/06/07 01:13:45;;;;;;;4.95;3.53;;;15.60;80.20;;;15.28;65.04;95249.03;4937659;28;20244;-85
2021/06/07 01:16:12;;;;;;;4.88;3.85;;;15.70;80.40;;;15.26;65.12;95254.53;4898824;29;20212;-85
2021/06/07 01:21:20;;;;;;;4.00;3.70;;;15.60;80.20;;;15.23;64.97;95246.22;5142154;27;20307;-85
2021/06/07 01:23:47;;;;;;;4.53;4.07;;;15.60;80.30;;;15.18;65.30;95247.69;5083742;28;20287;-85
2021/06/07 01:26:18;;;;;;;4.57;4.18;;;15.60;80.40;;;15.15;65.34;95237.53;5093971;28;20211;-85
2021/06/07 01:28:46;;;;;;;5.93;5.40;;;15.50;81.40;;;15.20;65.71;95248.25;5051960;28;20246;-85
2021/06/07 01:31:13;;;;;;;5.10;4.60;;;15.50;80.80;;;15.21;65.82;95235.88;4997285;28;20220;-83
2021/06/07 01:33:47;;;;;;;5.05;4.65;;;15.50;81.00;;;15.21;65.99;95230.59;4917706;28;20232;-85
2021/06/07 01:36:16;;;;;;;4.68;4.28;;;15.60;81.10;;;15.23;65.61;95241.75;4856272;29;20210;-85
2021/06/07 01:41:15;;;;;;;4.45;4.13;;;15.50;80.80;;;15.21;65.96;95234.03;5148505;27;20564;-85
2021/06/07 01:43:43;;;;;;;4.85;4.45;;;15.50;80.80;;;15.25;65.72;95234.41;5103708;27;20281;-85
2021/06/07 01:46:10;;;;;;;4.75;4.30;;;15.50;80.80;;;15.27;65.72;95239.47;5078947;28;20207;-85
2021/06/07 01:48:37;;;;;;;7.25;4.43;;;15.50;81.00;;;15.30;65.75;95234.59;5020225;28;20227;-84
2021/06/07 01:51:07;;;;;;;5.90;5.30;;;15.50;81.20;;;15.33;65.91;95230.69;4955070;28;20290;-86
2021/06/07 01:53:34;;;;;;;5.97;5.38;;;15.60;81.70;;;15.43;66.05;95236.34;4929689;28;20678;-85
2021/06/07 01:56:05;;;;;;;5.03;4.53;;;15.60;81.70;;;15.45;65.94;95230.84;4895529;29;20710;-84
2021/06/07 02:01:20;;;;;;;4.85;4.45;;;15.60;81.80;;;15.51;65.71;95236.09;5145570;27;20562;-84
2021/06/07 02:03:48;;;;;;;4.63;4.22;;;15.70;81.80;;;15.49;65.73;95232.84;5090186;27;20270;-85
2021/06/07 02:06:21;;;;;;;4.22;3.92;;;15.70;81.30;;;15.49;65.35;95237.28;5059784;28;20206;-85
2021/06/07 02:08:48;;;;;;;4.00;3.58;;;15.70;81.30;;;15.46;65.59;95241.19;5006696;28;20231;-85
2021/06/07 02:11:25;;;;;;;4.10;3.80;;;15.70;81.00;;;15.40;65.47;95239.41;4935379;28;20661;-84
2021/06/07 02:13:57;;;;;;;3.97;3.67;;;15.70;81.00;;;15.39;65.63;95240.41;4957084;28;20226;-85
2021/06/07 02:16:29;;;;;;;3.65;3.35;;;15.70;80.80;;;15.29;65.29;95229.53;4719003;30;20691;-85
2021/06/07 02:21:08;;;;;;;3.38;3.10;;;15.70;80.80;;;15.22;65.25;95240.13;5135205;27;20640;-84
2021/06/07 02:23:36;;;;;;;4.20;3.40;;;15.60;80.40;;;15.21;65.21;95241.16;5064557;28;20226;-84
2021/06/07 02:26:04;;;;;;;3.60;3.30;;;15.60;80.30;;;15.15;65.12;95242.81;5069925;28;20467;-84
2021/06/07 02:28:31;;;;;;;3.40;3.20;;;15.60;80.30;;;15.11;65.39;95232.88;5038379;28;20666;-85
2021/06/07 02:30:59;;;;;;;3.50;3.20;;;15.50;80.20;;;15.08;65.33;95236.75;5016884;28;20298;-84
2021/06/07 02:33:27;;;;;;;3.38;3.08;;;15.50;80.20;;;15.02;65.38;95233.13;4983870;28;20229;-85
2021/06/07 02:35:55;;;;;;;3.80;3.50;;;15.50;80.20;;;14.97;65.44;95234.78;4962488;28;20274;-84
2021/06/07 02:41:03;;;;;;;4.40;2.55;;;15.50;80.20;;;14.86;65.32;95234.41;5130732;27;21154;-84
2021/06/07 02:43:30;;;;;;;3.35;3.05;;;15.30;80.10;;;14.80;65.15;95224.69;5061933;28;20221;-84
2021/06/07 02:45:57;;;;;;;3.70;3.40;;;15.30;80.00;;;14.78;65.25;95231.22;5054911;28;20274;-84
2021/06/07 02:48:24;;;;;;;4.85;4.45;;;15.20;80.10;;;14.75;65.42;95234.28;5043273;28;20234;-84
2021/06/07 02:50:51;;;;;;;4.40;4.00;;;15.20;80.30;;;14.72;65.37;95238.13;4998096;28;20787;-85
2021/06/07 02:53:17;;;;;;;4.63;3.40;;;15.20;80.40;;;14.70;65.38;95237.56;4920401;29;20228;-85
2021/06/07 02:55:52;;;;;;;3.10;2.80;;;15.20;80.30;;;14.64;65.17;95236.50;4854971;29;20311;-85
2021/06/07 02:58:44;;;;;;;3.50;3.20;;;15.10;80.50;;;14.59;65.20;95233.69;5139226;27;21185;-85
2021/06/07 03:01:12;;;;;;;4.40;4.03;;;15.10;80.20;;;14.58;65.56;95237.34;5085790;28;20210;-85
2021/06/07 03:03:39;;;;;;;3.63;3.33;;;15.00;80.30;;;14.52;65.23;95232.91;5058405;28;20228;-85
2021/06/07 03:06:07;;;;;;;3.65;3.28;;;14.90;80.10;;;14.48;65.63;95231.72;5008336;28;20688;-85
2021/06/07 03:08:35;;;;;;;4.53;3.45;;;15.00;80.20;;;14.46;65.35;95234.53;5020740;28;20226;-84
2021/06/07 03:11:07;;;;;;;3.75;3.45;;;14.90;80.20;;;14.46;65.42;95245.09;4975681;28;20215;-85
2021/06/07 03:13:34;;;;;;;3.75;3.45;;;14.90;80.20;;;14.41;65.46;95242.28;4867051;29;20292;-85
2021/06/07 03:16:25;;;;;;;3.30;3.00;;;14.90;80.10;;;14.37;65.36;95241.09;5148824;27;20901;-86
2021/06/07 03:18:52;;;;;;;3.70;3.40;;;14.80;80.00;;;14.39;65.10;95250.41;5094544;28;20220;-85
2021/06/07 03:21:19;;;;;;;3.60;3.30;;;14.80;80.10;;;14.32;65.48;95246.97;5035860;28;22260;-84
2021/06/07 03:23:45;;;;;;;3.67;3.38;;;14.80;80.20;;;14.36;65.35;95252.66;4976777;28;20232;-83
2021/06/07 03:26:12;;;;;;;3.60;3.30;;;14.80;80.20;;;14.35;65.43;95256.31;4909142;28;20248;-84
2021/06/07 03:28:39;;;;;;;3.95;3.00;;;14.70;80.40;;;14.32;65.52;95252.25;4808446;29;20289;-85
2021/06/07 03:31:10;;;;;;;3.60;3.22;;;14.70;80.20;;;14.28;64.89;95244.94;4649165;30;20218;-84
2021/06/07 03:36:13;;;;;;;6.40;4.30;;;14.70;80.10;;;14.32;65.59;95251.44;5142454;27;20639;-84
2021/06/07 03:38:40;;;;;;;4.60;4.05;;;14.70;80.60;;;14.31;65.28;95244.56;5079433;28;20217;-84
2021/06/07 03:41:08;;;;;;;4.90;4.50;;;14.70;80.70;;;14.35;65.74;95245.75;5051077;28;20210;-84
2021/06/07 03:43:38;;;;;;;5.68;5.10;;;14.70;80.80;;;14.40;65.96;95246.75;5008899;28;20703;-85
2021/06/07 03:46:05;;;;;;;5.68;5.07;;;14.70;81.10;;;14.46;66.10;95249.56;4957142;28;20218;-84
2021/06/07 03:48:32;;;;;;;5.65;5.07;;;14.70;81.40;;;14.50;66.11;95251.59;4886491;29;20288;-85
2021/06/07 03:51:00;;;;;;;5.38;4.88;;;14.70;81.60;;;14.62;66.10;95250.94;4687992;30;20225;-83
2021/06/07 03:56:00;;;;;;;4.82;4.40;;;14.80;82.00;;;14.78;66.43;95254.97;5127553;27;20387;-84
2021/06/07 03:58:29;;;;;;;4.53;4.13;;;14.90;82.30;;;14.88;66.33;95252.72;5103202;28;20221;-84
2021/06/07 04:00:56;;;;;;;6.43;4.50;;;14.90;82.30;;;15.01;66.45;95257.94;5077200;28;20197;-86
2021/06/07 04:03:23;;;;;;;4.63;4.03;;;15.00;82.50;;;15.09;66.66;95254.22;5083654;28;20269;-86
2021/06/07 04:05:50;;;;;;;4.65;4.25;;;15.10;82.50;;;15.21;66.36;95249.09;5017518;28;20291;-86
2021/06/07 04:08:16;;;;;;;5.00;4.32;;;15.20;82.70;;;15.36;66.38;95254.88;4950261;28;20235;-86
2021/06/07 04:10:46;;;;;;;5.05;4.60;;;15.30;82.80;;;15.49;66.35;95267.19;4879819;29;20222;-86
2021/06/07 04:15:51;;;;;;;4.30;3.90;;;15.40;83.00;;;15.74;66.29;95263.75;5144766;27;20656;-87
2021/06/07 04:18:18;;;;;;;4.53;4.13;;;15.70;83.30;;;15.80;66.10;95257.59;5108290;28;20654;-86
2021/06/07 04:20:44;;;;;;;4.50;4.00;;;15.70;83.30;;;15.88;66.39;95253.94;5076979;28;21046;-86
2021/06/07 04:23:11;;;;;;;4.80;4.38;;;15.70;83.10;;;15.97;66.29;95265.03;5011460;28;20247;-86
2021/06/07 04:25:38;;;;;;;6.03;4.65;;;15.80;83.10;;;16.03;66.04;95258.06;4975240;28;20260;-87
2021/06/07 04:28:05;;;;;;;6.10;5.55;;;16.00;83.20;;;16.13;66.13;95269.78;4935322;28;20270;-86
2021/06/07 04:30:32;;;;;;;10.98;8.35;;;16.10;83.10;;;16.16;66.30;95263.22;4864874;29;20271;-86
2021/06/07 04:35:49;;;;;;;7.13;6.53;;;16.10;83.00;;;16.28;66.01;95261.50;5132086;27;21166;-86
2021/06/07 04:38:15;;;;;;;6.25;5.75;;;16.30;83.00;;;16.33;66.18;95261.66;5088765;28;20228;-86
2021/06/07 04:40:44;;;;;;;5.50;5.00;;;16.30;83.00;;;16.43;66.01;95271.75;5069437;28;20225;-86
2021/06/07 04:43:14;;;;;;;5.00;4.60;;;16.40;83.10;;;16.46;66.07;95268.63;5043763;28;20280;-86
2021/06/07 04:45:46;;;;;;;5.32;4.82;;;16.50;83.10;;;16.56;66.23;95269.97;5018281;28;20222;-86
2021/06/07 04:48:14;;;;;;;5.35;4.85;;;16.50;83.20;;;16.59;66.33;95265.03;4961303;28;20234;-86
2021/06/07 04:50:42;;;;;;;5.60;5.10;;;16.60;83.20;;;16.65;66.32;95258.88;4894202;29;20304;-85
2021/06/07 04:53:30;;;;;;;6.43;5.82;;;16.70;83.30;;;16.79;66.26;95266.66;5125905;27;21196;-85
2021/06/07 04:55:59;;;;;;;6.22;5.70;;;16.80;83.50;;;16.86;66.53;95256.00;5094079;28;20209;-86
2021/06/07 04:58:29;;;;;;;7.32;6.65;;;16.80;83.60;;;16.92;66.37;95255.94;5080773;28;20274;-86
2021/06/07 05:01:08;;;;;;;8.05;7.32;;;16.90;84.00;;;17.05;66.86;95259.44;5004822;28;20224;-86
2021/06/07 05:03:36;;;;;;;10.00;9.00;;;16.90;84.40;;;17.13;67.11;95251.19;4938570;28;20232;-86
2021/06/07 05:06:05;;;;;;;10.07;9.10;;;17.00;84.20;;;17.22;66.92;95246.38;4930547;28;20228;-86
2021/06/07 05:08:32;;;;;;;9.23;8.25;;;17.10;84.50;;;17.37;67.19;95260.03;4824360;29;20249;-86
2021/06/07 05:11:12;;;;;;;10.00;9.00;;;17.20;84.60;;;17.46;67.88;95252.56;5149529;27;21143;-86
2021/06/07 05:13:39;;;;;;;10.43;9.38;;;17.40;84.80;;;17.57;67.70;95264.22;5106882;28;20273;-85
2021/06/07 05:16:06;;;;;;;9.65;8.75;;;17.50;85.00;;;17.62;68.07;95252.94;5071644;28;20198;-85
2021/06/07 05:18:33;;;;;;;9.07;8.25;;;17.60;85.00;;;17.68;67.60;95258.13;5015995;28;20221;-85
2021/06/07 05:21:01;;;;;;;8.68;7.88;;;17.60;84.90;;;17.77;68.08;95259.44;4912702;29;20202;-86
2021/06/07 05:23:29;;;;;;;7.80;7.10;;;17.70;85.00;;;17.83;67.37;95263.00;4906730;29;20239;-86
2021/06/07 05:25:57;;;;;;;8.70;7.90;;;17.70;84.90;;;17.96;67.96;95261.22;4821144;29;20210;-86
2021/06/07 05:31:00;;;;;;;8.50;7.60;;;17.80;84.90;;;18.08;68.11;95265.50;5148418;27;20962;-86
2021/06/07 05:33:28;;;;;;;8.82;8.02;;;18.00;84.90;;;18.14;67.93;95257.63;5089754;28;20232;-86
2021/06/07 05:35:54;;;;;;;8.68;7.88;;;18.10;84.90;;;18.20;67.89;95262.84;5085296;28;20242;-85
2021/06/07 05:38:21;;;;;;;8.90;8.10;;;18.20;85.00;;;18.29;68.11;95267.81;5052505;28;20218;-86
2021/06/07 05:40:50;;;;;;;8.43;7.68;;;18.20;85.00;;;18.34;67.98;95266.06;5016553;28;20224;-86
2021/06/07 05:43:19;;;;;;;7.60;6.90;;;18.30;85.00;;;18.43;68.18;95265.72;4983881;28;20600;-86
2021/06/07 05:45:46;;;;;;;7.65;6.95;;;18.40;85.00;;;18.54;67.71;95272.84;4903636;28;20282;-85
2021/06/07 05:50:46;;;;;;;7.45;6.75;;;18.50;84.80;;;18.70;67.15;95263.34;5149334;27;20386;-85
2021/06/07 05:53:14;;;;;;;7.10;6.50;;;18.60;84.70;;;18.79;67.56;95267.28;5112132;27;20224;-85
2021/06/07 05:55:43;;;;;;;6.70;6.10;;;18.60;84.70;;;18.84;67.54;95259.41;5085322;28;20203;-84
2021/06/07 05:58:19;;;;;;;6.20;5.70;;;18.70;84.90;;;19.00;67.13;95270.38;5030204;28;20254;-84
2021/06/07 06:00:49;;;;;;;7.00;6.40;;;18.80;85.00;;;19.11;67.37;95261.53;4952091;28;20210;-81
2021/06/07 06:03:16;;;;;;;7.28;6.68;;;18.90;85.00;;;19.23;67.05;95264.16;4910544;28;20261;-83
2021/06/07 06:05:43;;;;;;;8.57;6.57;;;19.00;84.90;;;19.35;66.91;95266.78;4820567;29;20233;-82
2021/06/07 06:08:10;;;;;;;7.47;6.88;;;19.10;84.60;;;19.47;66.17;95269.38;4638247;30;20339;-83
2021/06/07 06:10:49;;;;;;;7.32;6.72;;;19.10;84.40;;;19.58;66.56;95271.19;5128387;27;20571;-83
2021/06/07 06:13:36;;;;;;;6.53;5.93;;;19.30;84.50;;;19.71;66.30;95279.91;5073600;28;20221;-83
2021/06/07 06:16:04;;;;;;;6.07;5.57;;;19.40;84.60;;;19.79;66.42;95272.31;5044892;28;20234;-83
2021/06/07 06:18:30;;;;;;;5.63;5.13;;;19.50;84.50;;;19.92;66.08;95275.75;5071172;28;20288;-82
2021/06/07 06:20:56;;;;;;;6.13;5.63;;;19.60;84.40;;;20.06;66.35;95285.03;5007775;28;20525;-83
2021/06/07 06:23:23;;;;;;;6.88;6.28;;;19.70;85.20;;;20.16;65.88;95284.38;4980691;28;20231;-85
2021/06/07 06:25:50;;;;;;;6.93;6.32;;;19.80;84.30;;;20.24;65.82;95288.50;4863544;29;20631;-82
2021/06/07 06:28:16;;;;;;;7.20;6.60;;;19.90;84.40;;;20.38;65.72;95287.09;4670449;29;20249;-82
2021/06/07 06:30:55;;;;;;;8.13;7.43;;;20.00;84.40;;;20.49;65.60;95290.72;5134469;27;20303;-82
2021/06/07 06:33:22;;;;;;;6.43;5.93;;;20.10;84.30;;;20.58;65.43;95289.25;5095957;28;20225;-82
2021/06/07 06:35:48;;;;;;;7.28;6.65;;;20.30;84.20;;;20.65;65.41;95286.41;5109717;27;20290;-83
2021/06/07 06:38:17;;;;;;;7.10;6.50;;;20.30;84.10;;;20.80;65.55;95296.50;5114898;27;20224;-83
2021/06/07 06:40:44;;;;;;;8.00;7.18;;;20.40;84.00;;;20.87;65.53;95293.66;5047348;28;20300;-83
2021/06/07 06:43:11;;;;;;;7.10;6.50;;;20.50;84.00;;;20.94;65.47;95291.59;4931176;29;20252;-82
2021/06/07 06:45:39;;;;;;;7.15;6.55;;;20.60;83.90;;;21.03;65.18;95294.63;4888069;29;20726;-83
2021/06/07 06:48:06;;;;;;;7.85;7.05;;;20.60;83.50;;;21.10;65.24;95296.09;4819772;29;20237;-82
2021/06/07 06:51:36;;;;;;;7.95;7.25;;;20.70;83.60;;;21.21;65.11;95290.84;5150699;27;20637;-81
2021/06/07 06:54:04;;;;;;;7.60;7.00;;;20.80;83.00;;;21.31;64.67;95296.28;5111769;27;20220;-83
2021/06/07 06:56:31;;;;;;;7.22;6.60;;;20.90;83.00;;;21.37;64.55;95289.16;5088762;28;20312;-82
2021/06/07 06:58:59;;;;;;;6.97;6.38;;;21.00;83.00;;;21.44;64.60;95287.88;5072350;28;20291;-82
2021/06/07 07:01:27;;;;;;;8.52;7.70;;;21.10;83.00;;;21.54;64.71;95289.06;5051301;28;20286;-82
2021/06/07 07:03:54;;;;;;;7.75;7.05;;;21.20;82.60;;;21.62;64.47;95291.31;5006738;28;20232;-82
2021/06/07 07:06:24;;;;;;;7.97;7.22;;;21.20;83.40;;;21.71;64.10;95289.78;4896665;28;20302;-83
2021/06/07 07:08:52;;;;;;;7.60;6.90;;;21.30;82.60;;;21.79;63.75;95290.38;4696745;30;20233;-81
2021/06/07 07:13:04;;;;;;;7.00;6.40;;;21.40;82.70;;;21.87;63.92;95288.09;5147087;27;20968;-82
2021/06/07 07:15:32;;;;;;;6.82;6.30;;;21.50;82.40;;;21.98;63.64;95296.97;5100459;28;20286;-83
2021/06/07 07:17:59;;;;;;;7.63;6.93;;;21.60;82.10;;;22.05;63.38;95302.91;5085041;28;20312;-83
2021/06/07 07:20:27;;;;;;;6.75;6.15;;;21.70;82.10;;;22.13;63.32;95303.50;5029773;28;20209;-81
2021/06/07 07:22:53;;;;;;;7.38;6.78;;;21.70;81.90;;;22.19;62.79;95297.94;5011596;28;20201;-82
2021/06/07 07:25:20;;;;;;;7.72;7.03;;;21.80;81.10;;;22.31;61.92;95307.63;4979662;28;20713;-81
2021/06/07 07:27:47;;;;;;;8.57;7.78;;;21.90;80.80;;;22.39;61.83;95301.84;4917169;28;20331;-82
2021/06/07 07:30:19;;;;;;;8.23;6.90;;;21.90;80.40;;;22.48;61.37;95308.31;4781359;29;20306;-84
2021/06/07 07:34:00;;;;;;;7.05;6.45;;;22.00;80.00;;;22.56;61.82;95299.03;5138892;27;20649;-83
2021/06/07 07:36:27;;;;;;;8.13;7.43;;;22.10;80.00;;;22.64;60.92;95303.06;5083678;28;20276;-82
2021/06/07 07:38:53;;;;;;;8.18;7.40;;;22.20;79.40;;;22.68;60.45;95299.63;5079472;28;20252;-82
2021/06/07 07:41:20;;;;;;;8.45;7.15;;;22.30;79.00;;;22.79;60.31;95303.16;5051407;28;20206;-83
2021/06/07 07:43:47;;;;;;;7.57;6.88;;;22.30;79.10;;;22.87;60.30;95309.88;5026209;28;20690;-82
2021/06/07 07:46:14;;;;;;;6.68;6.07;;;22.40;78.70;;;22.92;60.07;95301.88;4935330;28;20210;-82
2021/06/07 07:48:41;;;;;;;7.28;6.68;;;22.50;78.60;;;23.00;59.68;95306.72;4877195;29;20319;-83
2021/06/07 07:51:08;;;;;;;6.70;6.10;;;22.50;78.40;;;23.07;59.62;95306.50;4817584;29;20209;-82
2021/06/07 07:55:31;;;;;;;6.97;6.38;;;22.60;78.00;;;23.15;59.18;95305.19;5148281;27;20567;-82
2021/06/07 07:58:03;;;;;;;6.43;5.82;;;22.70;77.40;;;23.22;58.91;95308.47;5057029;28;20652;-82
2021/06/07 08:00:31;;;;;;;7.03;6.43;;;22.80;77.30;;;23.27;58.47;95302.31;5087187;28;20752;-82
2021/06/07 08:03:00;;;;;;;6.78;6.28;;;22.80;77.00;;;23.37;58.42;95306.91;5009056;28;20254;-82
2021/06/07 08:05:28;;;;;;;7.00;6.43;;;22.90;77.20;;;23.44;58.20;95307.47;4952518;28;20289;-81
2021/06/07 08:07:56;;;;;;;7.30;6.47;;;22.90;77.10;;;23.50;58.06;95306.41;4863741;29;20586;-82
2021/06/07 08:10:23;;;;;;;6.88;6.28;;;23.00;77.00;;;23.57;57.61;95301.59;4733477;29;20257;-81
2021/06/07 08:15:39;;;;;;;6.88;6.35;;;23.10;76.70;;;23.72;57.86;95310.75;5124811;27;20568;-82
2021/06/07 08:18:06;;;;;;;6.88;6.03;;;23.20;76.60;;;23.78;57.77;95313.16;5080299;28;20313;-82
2021/06/07 08:20:33;;;;;;;7.38;6.68;;;23.30;76.50;;;23.87;57.06;95309.94;5049392;28;20220;-82
2021/06/07 08:23:00;;;;;;;6.53;5.97;;;23.30;76.20;;;23.93;57.08;95306.25;5012111;28;20219;-81
2021/06/07 08:25:27;;;;;;;6.90;6.20;;;23.40;76.20;;;24.02;56.89;95307.28;4964108;28;20211;-82
2021/06/07 08:27:54;;;;;;;6.68;6.18;;;23.50;76.00;;;24.07;56.51;95303.81;4850379;29;20273;-82
2021/06/07 08:30:21;;;;;;;10.15;6.38;;;23.60;75.50;;;24.19;56.00;95309.72;4835519;29;20211;-83
2021/06/07 08:32:49;;;;;;;6.78;6.18;;;23.60;75.20;;;24.25;55.42;95308.63;4750735;29;20274;-82
2021/06/07 08:37:22;;;;;;;6.40;5.90;;;23.70;74.40;;;24.35;54.21;95305.16;5124599;27;20577;-81
2021/06/07 08:39:49;;;;;;;7.50;6.85;;;23.80;73.70;;;24.47;53.76;95304.88;5087987;28;20577;-81
2021/06/07 08:42:15;;;;;;;7.28;6.68;;;23.90;73.20;;;24.53;54.05;95305.69;5057644;28;20568;-82
2021/06/07 08:44:42;;;;;;;6.25;5.65;;;24.00;73.70;;;24.67;54.06;95311.31;5015479;28;20223;-82
2021/06/07 08:47:09;;;;;;;6.97;6.38;;;24.10;73.60;;;24.76;53.75;95307.78;4965862;28;20227;-82
2021/06/07 08:49:36;;;;;;;6.57;6.07;;;24.10;73.20;;;24.86;53.87;95304.28;4842771;29;20243;-82
2021/06/07 08:52:04;;;;;;;6.65;5.97;;;24.20;73.50;;;24.96;53.90;95298.06;4705853;29;20709;-82
2021/06/07 08:54:32;;;;;;;6.18;5.60;;;24.30;73.00;;;25.06;53.37;95300.72;4529128;31;23658;-82
2021/06/07 08:58:50;;;;;;;6.78;6.18;;;24.40;73.10;;;25.18;52.46;95296.91;5126701;27;20944;-82
2021/06/07 09:01:34;;;;;;;7.18;6.38;;;24.60;72.40;;;25.31;52.72;95304.38;5075748;28;20206;-81
2021/06/07 09:04:16;;;;;;;6.32;5.75;;;24.70;72.70;;;25.43;52.28;95301.41;5044596;28;20322;-81
2021/06/07 09:06:47;;;;;;;5.50;5.10;;;24.80;71.70;;;25.55;52.21;95304.56;5007333;28;20850;-82
2021/06/07 09:09:18;;;;;;;6.45;5.95;;;24.90;71.60;;;25.66;51.82;95293.72;4839826;29;20248;-82
2021/06/07 09:11:57;;;;;;;6.70;6.10;;;24.90;72.20;;;25.77;51.27;95303.34;4712410;29;20226;-82
2021/06/07 09:14:30;;;;;;;5.85;5.30;;;25.10;70.90;;;25.85;50.64;95299.25;4543026;30;20252;-82
2021/06/07 09:19:33;;;;;;;5.93;5.43;;;25.20;69.90;;;25.97;48.36;95302.41;5118886;27;20363;-81
2021/06/07 09:22:29;;;;;;;6.25;5.75;;;25.30;68.60;;;26.03;49.45;95301.28;5069686;28;20207;-81
2021/06/07 09:25:06;;;;;;;5.78;5.22;;;25.40;69.40;;;26.12;49.02;95301.53;5051919;28;20230;-82
2021/06/07 09:27:34;;;;;;;5.93;5.25;;;25.50;68.40;;;26.15;48.88;95298.25;5047866;28;20233;-82
2021/06/07 09:30:02;;;;;;;5.28;4.88;;;25.60;68.10;;;26.21;48.60;95304.41;4989977;28;20238;-83
2021/06/07 09:32:28;;;;;;;7.25;5.50;;;25.60;68.50;;;26.26;49.14;95300.88;4878226;28;20248;-83
2021/06/07 09:35:09;;;;;;;5.55;5.10;;;25.70;68.50;;;26.30;49.29;95300.00;4767927;29;20242;-83
2021/06/07 09:37:36;;;;;;;5.90;5.40;;;25.70;68.70;;;26.31;49.00;95295.44;4488129;31;20253;-82
2021/06/07 09:40:20;;;;;;;5.90;5.40;;;25.80;68.70;;;26.34;48.52;95295.69;5132526;27;20652;-83
2021/06/07 09:43:05;;;;;;;7.03;5.68;;;25.80;67.90;;;26.40;48.43;95280.28;5063633;28;20200;-83
2021/06/07 09:45:48;;;;;;;5.57;5.07;;;25.80;67.80;;;26.52;47.47;95287.97;5043470;28;20218;-81
2021/06/07 09:48:17;;;;;;;5.35;4.60;;;25.90;67.00;;;26.67;47.02;95287.84;4993507;28;20225;-81
2021/06/07 09:51:00;;;;;;;6.78;4.75;;;26.00;67.20;;;26.84;46.27;95282.03;4956703;28;20563;-81
2021/06/07 09:53:51;;;;;;;5.03;4.63;;;26.10;66.40;;;27.00;46.32;95285.34;4848726;29;20244;-82
2021/06/07 09:56:20;;;;;;;5.03;4.57;;;26.20;66.80;;;27.16;45.38;95287.88;4805622;29;20706;-82
2021/06/07 09:58:57;;;;;;;5.35;4.85;;;26.30;65.60;;;27.27;44.81;95289.31;5132789;27;20590;-81
2021/06/07 10:01:31;;;;;;;5.45;4.95;;;26.40;65.20;;;27.37;44.19;95280.31;5077602;28;20207;-82
2021/06/07 10:04:01;;;;;;;5.00;4.60;;;26.50;64.70;;;27.45;43.74;95282.41;5084838;28;20473;-82
2021/06/07 10:06:35;;;;;;;5.05;4.30;;;26.60;64.40;;;27.55;43.81;95280.63;5020540;28;20305;-82
2021/06/07 10:09:12;;;;;;;5.03;4.60;;;26.70;64.30;;;27.67;43.27;95272.13;4999681;28;20250;-83
2021/06/07 10:11:41;;;;;;;4.60;4.25;;;26.80;63.60;;;27.78;44.25;95274.38;4974026;28;20274;-83
2021/06/07 10:14:22;;;;;;;5.18;4.78;;;26.90;64.20;;;27.92;43.12;95270.94;4810604;29;20243;-83
2021/06/07 10:22:04;;;;;;;5.13;4.63;;;27.20;62.60;;;28.00;42.18;95269.47;5092595;28;20209;-81
2021/06/07 10:24:31;;;;;;;4.60;4.20;;;27.30;62.70;;;28.04;41.08;95268.59;5011652;28;20238;-81
2021/06/07 10:26:58;;;;;;;5.00;4.30;;;27.30;62.50;;;28.13;41.78;95276.03;5026738;28;20674;-85
2021/06/07 10:29:33;;;;;;;4.70;4.30;;;27.40;62.50;;;28.21;41.66;95264.56;4994663;28;20236;-81
2021/06/07 10:32:22;;;;;;;4.38;4.00;;;27.50;62.50;;;28.31;41.84;95267.09;4901731;28;20215;-81
2021/06/07 10:34:59;;;;;;;4.80;4.40;;;27.50;63.10;;;28.41;41.03;95268.81;4706981;30;20334;-80
2021/06/07 10:40:19;;;;;;;4.65;4.25;;;27.70;62.10;;;28.57;40.93;95261.22;5111037;27;20733;-81
2021/06/07 10:43:12;;;;;;;5.00;4.60;;;27.80;62.50;;;28.65;41.15;95270.53;5056914;28;20213;-80
2021/06/07 10:45:42;;;;;;;5.00;4.60;;;27.90;62.70;;;28.75;40.26;95267.69;4990829;28;20219;-80
2021/06/07 10:48:12;;;;;;;4.72;4.32;;;28.00;61.10;;;28.85;39.94;95270.16;4978657;28;20223;-81
2021/06/07 10:50:44;;;;;;;4.40;3.90;;;28.10;61.20;;;28.98;40.30;95262.34;4920144;28;20228;-82
2021/06/07 10:53:25;;;;;;;4.65;4.25;;;28.20;61.00;;;29.07;40.89;95264.06;4883094;29;20244;-82
2021/06/07 10:56:10;;;;;;;4.53;4.15;;;28.30;61.40;;;29.16;40.34;95261.47;4750772;29;20233;-81
2021/06/07 11:00:47;;;;;;;4.70;4.30;;;28.40;61.20;;;29.22;40.11;95262.13;5147446;27;21086;-82
2021/06/07 11:03:24;;;;;;;4.88;4.47;;;28.50;60.50;;;29.25;39.32;95258.84;5079002;28;20303;-82
2021/06/07 11:06:00;;;;;;;4.85;4.45;;;28.60;60.10;;;29.27;39.84;95251.22;5042122;28;20255;-82
2021/06/07 11:08:36;;;;;;;4.72;4.30;;;28.70;60.00;;;29.33;39.65;95260.88;5022827;28;20228;-82
2021/06/07 11:11:14;;;;;;;6.35;4.70;;;28.70;60.20;;;29.33;39.21;95257.34;4986330;28;20216;-82
2021/06/07 11:13:53;;;;;;;4.97;4.57;;;28.70;59.70;;;29.35;38.39;95252.47;5002936;28;20238;-82
2021/06/07 11:16:30;;;;;;;5.55;4.50;;;28.80;58.90;;;29.35;38.47;95255.94;4888413;29;20211;-82
2021/06/07 11:19:15;;;;;;;5.20;4.80;;;28.80;58.70;;;29.30;38.91;95255.28;4693036;29;20647;-82
2021/06/07 11:22:05;;;;;;;4.70;4.20;;;28.80;58.70;;;29.28;37.46;95247.41;5142935;27;20303;-82
2021/06/07 11:24:38;;;;;;;4.35;4.03;;;28.80;57.30;;;29.28;37.62;95255.53;5059866;28;20253;-82
2021/06/07 11:27:46;;;;;;;4.75;4.35;;;28.80;57.70;;;29.26;38.34;95246.94;5067225;28;20204;-83
2021/06/07 11:30:20;;;;;;;4.43;4.03;;;28.70;59.40;;;29.29;37.82;95246.31;5031624;28;20214;-83
2021/06/07 11:32:49;;;;;;;4.40;4.00;;;28.70;58.30;;;29.36;38.19;95246.75;5057092;28;20295;-83